Time;durP1;ratioP1;P1;durP2;ratioP2;P2;SDS_P1;SDS_P2;PMS_P1;PMS_P2;Temp;Humidity;BMP_temperature;BMP_pressure;BME280_temperature;BME280_humidity;BME280_pressure;Samples;Min_cycle;Max_cycle;Signal;HPM_P1;HPM_P2
2023/05/17 00:02:05;;;;;;;4.95;1.42;;;9.30;99.90;;;;;;5051714;28;20102;-64
2023/05/17 00:04:32;;;;;;;4.75;1.20;;;9.20;99.90;;;;;;5052996;28;20061;-64
2023/05/17 00:06:58;;;;;;;12.88;1.58;;;9.20;99.90;;;;;;5053203;28;20048;-63
2023/05/17 00:09:23;;;;;;;3.95;0.95;;;9.10;1.00;;;;;;5053137;28;20396;-64
2023/05/17 00:11:49;;;;;;;3.72;0.82;;;9.10;1.00;;;;;;5034831;28;20038;-64
2023/05/17 00:14:15;;;;;;;5.88;1.20;;;9.00;99.90;;;;;;5052876;28;20059;-64
2023/05/17 00:16:40;;;;;;;6.72;1.17;;;8.90;99.90;;;;;;5051479;28;20036;-64
2023/05/17 00:19:08;;;;;;;7.80;1.35;;;8.90;99.90;;;;;;5053002;28;20124;-64
2023/05/17 00:21:34;;;;;;;2.25;0.90;;;8.90;99.90;;;;;;5052840;28;20049;-64
2023/05/17 00:23:59;;;;;;;2.38;0.82;;;8.80;99.90;;;;;;5053019;28;20120;-64
2023/05/17 00:26:25;;;;;;;3.58;1.40;;;8.80;99.90;;;;;;5053015;28;20088;-64
2023/05/17 00:28:51;;;;;;;5.82;1.20;;;8.70;99.90;;;;;;5052907;28;20072;-64
2023/05/17 00:31:17;;;;;;;2.97;0.88;;;8.70;99.90;;;;;;5052849;28;20406;-63
2023/05/17 00:33:42;;;;;;;3.38;1.13;;;8.70;99.90;;;;;;5052605;28;20394;-64
2023/05/17 00:36:08;;;;;;;12.15;2.03;;;8.60;99.90;;;;;;5053135;28;20167;-64
2023/05/17 00:38:33;;;;;;;5.38;1.33;;;8.60;99.90;;;;;;5051596;28;20508;-63
2023/05/17 00:40:59;;;;;;;5.55;1.20;;;8.80;99.90;;;;;;5051634;28;20044;-64
2023/05/17 00:43:25;;;;;;;3.95;1.40;;;8.70;99.90;;;;;;5052841;28;20516;-64
2023/05/17 00:45:51;;;;;;;1.83;0.68;;;8.70;99.90;;;;;;5052493;28;20033;-63
2023/05/17 00:48:19;;;;;;;11.38;1.05;;;9.20;99.90;;;;;;5055410;28;20116;-64
2023/05/17 00:50:46;;;;;;;13.82;1.05;;;8.70;85.00;;;;;;5056876;28;20044;-63
2023/05/17 00:53:15;;;;;;;6.50;1.40;;;8.70;31.70;;;;;;5056654;28;20374;-64
2023/05/17 00:55:42;;;;;;;2.50;1.02;;;8.70;51.00;;;;;;5055472;28;20124;-64
2023/05/17 00:58:08;;;;;;;4.13;1.20;;;8.70;73.50;;;;;;5056229;28;20040;-64
2023/05/17 01:00:34;;;;;;;4.72;0.95;;;8.80;99.90;;;;;;5056305;28;20033;-64
2023/05/17 01:03:00;;;;;;;13.30;1.48;;;8.50;99.90;;;;;;5056526;28;20037;-64
2023/05/17 01:05:27;;;;;;;2.75;1.00;;;10.00;99.90;;;;;;5054791;28;20053;-64
2023/05/17 01:07:53;;;;;;;4.57;1.15;;;8.40;99.90;;;;;;5056442;28;20060;-64
2023/05/17 01:10:19;;;;;;;7.88;1.25;;;8.40;99.90;;;;;;5056440;28;20382;-64
2023/05/17 01:13:01;;;;;;;6.80;1.10;;;8.40;1.00;;;;;;5055096;28;20075;-64
2023/05/17 01:15:30;;;;;;;;;;;8.30;1.00;;;;;;5056770;28;20037;-66
2023/05/17 01:18:19;;;;;;;8.95;1.20;;;7.80;1.00;;;;;;5054958;28;19921;-64
2023/05/17 01:20:46;;;;;;;3.17;0.93;;;8.30;99.90;;;;;;5055461;28;20072;-66
2023/05/17 01:23:30;;;;;;;5.40;0.95;;;8.30;1.00;;;;;;5056194;28;20041;-64
2023/05/17 01:26:00;;;;;;;4.65;1.20;;;8.50;99.90;;;;;;5054621;28;20455;-64
2023/05/17 01:28:28;;;;;;;6.15;0.98;;;8.30;1.00;;;;;;5056116;28;20409;-66
2023/05/17 01:30:56;;;;;;;8.73;1.30;;;9.40;1.00;;;;;;5054423;28;20098;-65
2023/05/17 01:33:22;;;;;;;2.35;0.80;;;8.30;99.90;;;;;;5055543;28;20041;-64
2023/05/17 01:35:48;;;;;;;5.25;1.08;;;8.20;1.00;;;;;;5055693;28;20127;-64
2023/05/17 01:38:13;;;;;;;5.60;0.77;;;8.20;1.00;;;;;;5055887;28;20049;-63
2023/05/17 01:40:54;;;;;;;3.95;0.88;;;8.40;99.90;;;;;;5054326;28;20044;-64
2023/05/17 01:43:40;;;;;;;3.03;0.82;;;8.30;99.90;;;;;;5055822;28;20443;-64
2023/05/17 01:46:20;;;;;;;2.60;1.05;;;8.20;99.90;;;;;;5055506;28;20173;-63
2023/05/17 01:49:04;;;;;;;7.95;1.00;;;6.10;99.90;;;;;;5055649;28;20033;-64
2023/05/17 01:51:35;;;;;;;6.78;1.02;;;8.10;99.90;;;;;;5055581;28;20033;-65
2023/05/17 01:54:08;;;;;;;12.90;1.52;;;9.90;99.90;;;;;;5055387;28;20086;-63
2023/05/17 01:56:39;;;;;;;6.82;1.33;;;8.10;99.90;;;;;;5055553;28;20033;-64
2023/05/17 01:59:06;;;;;;;7.25;1.20;;;8.00;1.00;;;;;;5054706;28;20082;-63
2023/05/17 02:01:32;;;;;;;3.53;0.60;;;8.00;1.00;;;;;;5055477;28;20036;-64
2023/05/17 02:03:58;;;;;;;3.35;0.90;;;8.00;99.90;;;;;;5055187;28;20477;-63
2023/05/17 02:06:23;;;;;;;4.30;0.88;;;8.00;99.90;;;;;;5055670;28;20043;-64
2023/05/17 02:08:49;;;;;;;11.98;1.42;;;8.00;51.60;;;;;;5054916;28;20037;-64
2023/05/17 02:11:15;;;;;;;9.75;1.40;;;8.00;1.00;;;;;;5054969;28;20036;-63
2023/05/17 02:13:40;;;;;;;3.00;0.93;;;8.00;1.00;;;;;;5055222;28;20033;-64
2023/05/17 02:16:06;;;;;;;8.85;1.23;;;7.90;1.00;;;;;;5053661;28;20076;-63
2023/05/17 02:18:36;;;;;;;4.07;1.10;;;8.00;99.90;;;;;;5055150;28;20112;-64
2023/05/17 02:21:02;;;;;;;6.03;1.07;;;8.00;99.90;;;;;;5055122;28;20090;-63
2023/05/17 02:23:27;;;;;;;4.85;1.25;;;8.00;1.00;;;;;;5054701;28;20522;-64
2023/05/17 02:25:53;;;;;;;4.00;0.98;;;8.00;1.00;;;;;;5054953;28;20037;-64
2023/05/17 02:28:19;;;;;;;3.45;0.90;;;8.50;25.30;;;;;;5053479;28;20412;-63
2023/05/17 02:30:44;;;;;;;5.95;1.10;;;7.90;1.00;;;;;;5054923;28;20041;-65
2023/05/17 02:33:10;;;;;;;6.25;1.20;;;7.90;99.90;;;;;;5053184;28;20512;-64
2023/05/17 02:35:36;;;;;;;7.75;0.90;;;7.90;1.00;;;;;;5054843;28;20531;-64
2023/05/17 02:38:02;;;;;;;5.05;1.10;;;7.70;17.10;;;;;;5054722;28;20516;-64
2023/05/17 02:40:27;;;;;;;3.95;1.00;;;7.90;99.90;;;;;;5053150;28;20401;-66
2023/05/17 02:42:53;;;;;;;8.10;1.42;;;7.80;99.90;;;;;;5053259;28;20126;-64
2023/05/17 02:45:18;;;;;;;2.55;0.80;;;7.70;99.90;;;;;;5054603;28;20091;-63
2023/05/17 02:47:44;;;;;;;3.97;0.93;;;7.70;99.90;;;;;;5053082;28;20246;-64
2023/05/17 02:50:10;;;;;;;4.72;0.95;;;7.70;99.90;;;;;;5053247;28;20055;-64
2023/05/17 02:52:35;;;;;;;4.72;0.90;;;7.70;99.90;;;;;;5054349;28;20053;-64
2023/05/17 02:55:01;;;;;;;7.95;0.98;;;7.60;99.90;;;;;;5054423;28;20043;-64
2023/05/17 02:57:27;;;;;;;9.40;0.85;;;7.60;99.90;;;;;;5054380;28;20423;-64
2023/05/17 02:59:52;;;;;;;5.63;0.88;;;7.60;99.90;;;;;;5054258;28;20473;-64
2023/05/17 03:02:18;;;;;;;4.13;1.30;;;7.60;99.90;;;;;;5052831;28;20044;-64
2023/05/17 03:04:43;;;;;;;3.25;1.25;;;7.50;99.90;;;;;;5052633;28;20061;-64
2023/05/17 03:07:10;;;;;;;8.82;1.13;;;7.50;99.90;;;;;;5054161;28;20067;-64
2023/05/17 03:09:36;;;;;;;4.25;0.98;;;7.50;99.90;;;;;;5054117;28;20052;-64
2023/05/17 03:12:02;;;;;;;2.78;1.02;;;7.60;99.90;;;;;;5053007;28;20041;-63
2023/05/17 03:14:27;;;;;;;4.55;1.17;;;7.60;99.90;;;;;;5054025;28;20443;-64
2023/05/17 03:16:53;;;;;;;3.35;0.82;;;7.60;99.90;;;;;;5036130;28;20179;-64
2023/05/17 03:19:18;;;;;;;4.10;0.90;;;7.60;99.90;;;;;;5054045;28;20032;-63
2023/05/17 03:21:44;;;;;;;3.10;0.80;;;7.60;99.90;;;;;;5052725;28;20040;-64
2023/05/17 03:24:10;;;;;;;1.83;0.55;;;7.70;99.90;;;;;;5053891;28;20377;-64
2023/05/17 03:26:35;;;;;;;5.35;1.23;;;7.70;99.90;;;;;;5053805;28;20499;-64
2023/05/17 03:29:01;;;;;;;5.18;1.05;;;7.70;99.90;;;;;;5052468;28;20481;-63
2023/05/17 03:31:27;;;;;;;8.32;1.02;;;8.50;99.90;;;;;;5052413;28;20056;-63
2023/05/17 03:33:52;;;;;;;4.60;0.65;;;7.70;99.90;;;;;;5053705;28;20044;-64
2023/05/17 03:36:18;;;;;;;11.65;1.35;;;7.70;99.90;;;;;;5053393;28;20369;-64
2023/05/17 03:38:44;;;;;;;8.70;1.10;;;8.90;99.90;;;;;;5052079;28;20036;-63
2023/05/17 03:41:11;;;;;;;6.18;1.15;;;7.80;99.90;;;;;;5053529;28;20082;-63
2023/05/17 03:43:36;;;;;;;6.78;0.95;;;7.80;99.90;;;;;;5053287;28;20045;-63
2023/05/17 03:46:02;;;;;;;5.80;1.38;;;7.80;99.90;;;;;;5053457;28;20067;-64
2023/05/17 03:48:28;;;;;;;7.95;1.00;;;7.90;99.90;;;;;;5053179;28;20068;-64
2023/05/17 03:50:53;;;;;;;4.40;0.90;;;7.90;99.90;;;;;;5053388;28;20505;-63
2023/05/17 03:53:20;;;;;;;3.67;0.73;;;7.90;99.90;;;;;;5053277;28;20048;-63
2023/05/17 03:55:46;;;;;;;2.45;0.75;;;7.90;59.00;;;;;;5053395;28;20040;-64
2023/05/17 03:58:11;;;;;;;2.20;0.85;;;7.90;70.70;;;;;;5053306;28;20469;-64
2023/05/17 04:00:37;;;;;;;5.72;0.88;;;8.00;1.00;;;;;;5052077;28;20095;-63
2023/05/17 04:03:03;;;;;;;1.45;0.63;;;8.00;99.90;;;;;;5052043;28;20114;-64
2023/05/17 04:05:28;;;;;;;4.95;1.00;;;8.00;99.90;;;;;;5052840;28;20053;-64
2023/05/17 04:07:54;;;;;;;3.60;0.70;;;8.10;99.90;;;;;;5053197;28;20052;-63
2023/05/17 04:10:20;;;;;;;2.17;0.60;;;8.10;1.00;;;;;;5053116;28;20033;-63
2023/05/17 04:12:46;;;;;;;5.53;0.73;;;8.20;1.00;;;;;;5053052;28;20491;-63
2023/05/17 04:15:11;;;;;;;3.90;1.05;;;8.20;94.60;;;;;;5053009;28;20040;-63
2023/05/17 04:17:37;;;;;;;5.03;0.80;;;8.20;99.90;;;;;;5052903;28;20041;-63
2023/05/17 04:20:05;;;;;;;4.47;0.82;;;8.10;1.00;;;;;;5052999;28;20075;-63
2023/05/17 04:22:31;;;;;;;1.83;0.35;;;8.10;1.00;;;;;;5052655;28;20052;-63
2023/05/17 04:24:56;;;;;;;2.30;0.88;;;8.10;26.20;;;;;;5051717;28;20045;-63
2023/05/17 04:27:22;;;;;;;3.70;0.63;;;8.10;1.00;;;;;;5052900;28;20087;-64
2023/05/17 04:29:47;;;;;;;3.65;0.73;;;8.10;99.90;;;;;;5052887;28;20037;-63
2023/05/17 04:32:13;;;;;;;3.20;0.55;;;8.10;35.60;;;;;;5052831;28;20040;-63
2023/05/17 04:34:39;;;;;;;1.58;0.52;;;8.10;99.90;;;;;;5051649;28;20066;-68
2023/05/17 04:37:05;;;;;;;1.80;0.43;;;8.10;99.90;;;;;;5051249;28;20113;-68
2023/05/17 04:39:31;;;;;;;4.68;0.57;;;8.10;92.90;;;;;;5051591;28;20045;-62
2023/05/17 04:41:56;;;;;;;6.97;0.73;;;8.10;1.00;;;;;;5052736;28;20044;-63
2023/05/17 04:44:22;;;;;;;2.20;0.57;;;8.10;1.00;;;;;;5051324;28;20141;-63
2023/05/17 04:46:48;;;;;;;2.15;0.40;;;8.20;1.00;;;;;;5052388;28;20500;-63
2023/05/17 04:49:13;;;;;;;1.70;0.68;;;8.20;1.00;;;;;;5052769;28;20411;-66
2023/05/17 04:51:39;;;;;;;1.98;0.30;;;8.20;99.90;;;;;;5052644;28;20045;-63
2023/05/17 04:54:07;;;;;;;4.60;0.95;;;8.30;99.90;;;;;;5052679;28;20071;-65
2023/05/17 04:56:35;;;;;;;1.02;0.40;;;8.30;99.90;;;;;;5052465;28;20545;-62
2023/05/17 04:59:01;;;;;;;5.35;0.85;;;8.30;99.90;;;;;;5051136;28;20041;-62
2023/05/17 05:01:29;;;;;;;3.25;0.60;;;8.30;99.90;;;;;;5051456;28;20051;-62
2023/05/17 05:03:55;;;;;;;4.05;0.60;;;8.40;99.90;;;;;;5052148;28;20059;-63
2023/05/17 05:06:21;;;;;;;5.00;0.80;;;8.40;99.90;;;;;;5051308;28;20543;-62
2023/05/17 05:08:47;;;;;;;3.70;0.80;;;8.50;99.90;;;;;;5052479;28;20041;-63
2023/05/17 05:11:13;;;;;;;3.50;0.68;;;8.50;99.90;;;;;;5052191;28;20504;-63
2023/05/17 05:13:40;;;;;;;0.30;0.30;;;8.50;99.90;;;;;;5050964;28;20064;-63
2023/05/17 05:16:06;;;;;;;6.40;0.65;;;8.50;99.90;;;;;;5052293;28;20095;-63
2023/05/17 05:18:32;;;;;;;3.33;1.08;;;8.50;99.90;;;;;;5052502;28;20033;-62
2023/05/17 05:20:58;;;;;;;1.15;0.40;;;8.60;99.90;;;;;;5051387;28;20457;-63
2023/05/17 05:23:23;;;;;;;3.65;0.70;;;8.60;99.90;;;;;;5052318;28;20041;-63
2023/05/17 05:25:49;;;;;;;1.48;0.40;;;8.70;99.90;;;;;;5051051;28;20048;-63
2023/05/17 05:28:15;;;;;;;0.90;0.50;;;8.70;99.90;;;;;;5052315;28;20056;-63
2023/05/17 05:30:41;;;;;;;2.15;0.65;;;8.80;99.90;;;;;;5052372;28;20116;-63
2023/05/17 05:33:06;;;;;;;5.63;0.60;;;8.70;99.90;;;;;;5052213;28;20477;-65
2023/05/17 05:35:32;;;;;;;1.83;0.80;;;8.70;99.90;;;;;;5055327;28;20044;-63
2023/05/17 05:37:58;;;;;;;4.95;0.70;;;8.70;99.90;;;;;;5055776;28;20033;-63
2023/05/17 05:40:24;;;;;;;3.15;0.80;;;9.70;99.90;;;;;;5055864;28;20036;-65
2023/05/17 05:42:50;;;;;;;4.68;0.55;;;8.90;99.90;;;;;;5054469;28;20040;-63
2023/05/17 05:45:15;;;;;;;5.22;1.15;;;9.00;99.90;;;;;;5055754;28;20485;-63
2023/05/17 05:47:41;;;;;;;1.50;0.45;;;9.20;99.90;;;;;;5055673;28;20370;-62
2023/05/17 05:50:08;;;;;;;3.30;0.55;;;9.20;99.90;;;;;;5054328;28;20412;-63
2023/05/17 05:52:34;;;;;;;2.90;0.40;;;9.30;99.90;;;;;;5055480;28;20511;-65
2023/05/17 05:54:59;;;;;;;3.30;0.47;;;9.30;99.90;;;;;;5055251;28;20037;-67
2023/05/17 05:57:25;;;;;;;4.90;0.35;;;8.90;99.90;;;;;;5055510;28;20041;-63
2023/05/17 05:59:50;;;;;;;0.52;0.30;;;9.40;99.90;;;;;;5055415;28;20048;-65
2023/05/17 06:02:16;;;;;;;5.63;0.57;;;9.40;99.90;;;;;;5055392;28;20477;-66
2023/05/17 06:04:42;;;;;;;2.15;0.63;;;9.50;99.90;;;;;;5055170;28;20048;-64
2023/05/17 06:07:08;;;;;;;3.58;0.50;;;9.60;99.90;;;;;;5055335;28;20040;-66
2023/05/17 06:09:33;;;;;;;3.40;0.40;;;9.60;99.90;;;;;;5054946;28;20048;-63
2023/05/17 06:12:00;;;;;;;2.22;0.60;;;9.70;99.90;;;;;;5054847;28;20041;-64
2023/05/17 06:14:25;;;;;;;3.10;0.40;;;9.80;99.90;;;;;;5054794;28;20081;-64
2023/05/17 06:16:51;;;;;;;5.93;1.25;;;9.80;99.90;;;;;;5055140;28;20080;-65
2023/05/17 06:19:17;;;;;;;0.65;0.32;;;9.80;99.90;;;;;;5053586;28;20532;-64
2023/05/17 06:21:42;;;;;;;2.67;0.70;;;9.80;99.90;;;;;;5055068;28;20443;-63
2023/05/17 06:24:08;;;;;;;1.25;0.40;;;10.60;99.90;;;;;;5054753;28;20033;-64
2023/05/17 06:26:34;;;;;;;0.52;0.40;;;9.90;99.90;;;;;;5054967;28;20485;-63
2023/05/17 06:29:00;;;;;;;4.22;1.27;;;10.00;99.90;;;;;;5054865;28;20535;-63
2023/05/17 06:31:25;;;;;;;1.42;0.50;;;10.10;99.90;;;;;;5055124;28;20048;-63
2023/05/17 06:33:51;;;;;;;1.98;0.60;;;10.10;99.90;;;;;;5053335;28;20041;-63
2023/05/17 06:36:17;;;;;;;1.70;0.50;;;10.40;99.90;;;;;;5036547;28;20037;-63
2023/05/17 06:38:42;;;;;;;3.15;0.70;;;10.50;99.90;;;;;;5054485;28;20393;-63
2023/05/17 06:41:08;;;;;;;1.63;0.70;;;10.50;99.90;;;;;;5054606;28;20065;-63
2023/05/17 06:43:34;;;;;;;1.73;0.50;;;10.30;99.90;;;;;;5054678;28;20044;-62
2023/05/17 06:45:59;;;;;;;3.28;0.43;;;10.50;99.90;;;;;;5054295;28;20492;-62
2023/05/17 06:48:25;;;;;;;5.40;1.15;;;10.50;99.90;;;;;;5054554;28;20044;-62
2023/05/17 06:50:51;;;;;;;6.20;0.73;;;10.60;99.90;;;;;;5052942;28;20048;-62
2023/05/17 06:53:19;;;;;;;1.33;0.50;;;10.70;99.90;;;;;;5054402;28;20120;-62
2023/05/17 06:55:44;;;;;;;1.38;0.68;;;10.60;97.00;;;;;;5054066;28;20052;-62
2023/05/17 06:58:10;;;;;;;4.13;0.63;;;10.50;94.40;;;;;;5052789;28;20041;-62
2023/05/17 07:00:36;;;;;;;6.18;0.75;;;10.50;96.00;;;;;;5054206;28;20040;-65
2023/05/17 07:03:01;;;;;;;7.28;1.08;;;10.50;96.60;;;;;;5052579;28;20040;-62
2023/05/17 07:05:29;;;;;;;5.68;1.10;;;10.50;97.20;;;;;;5053807;28;20057;-62
2023/05/17 07:07:55;;;;;;;2.13;0.50;;;10.50;95.20;;;;;;5054075;28;20182;-62
2023/05/17 07:10:21;;;;;;;5.00;0.65;;;10.50;95.80;;;;;;5054127;28;20549;-63
2023/05/17 07:12:46;;;;;;;4.20;0.90;;;10.50;96.20;;;;;;5053956;28;20124;-63
2023/05/17 07:15:12;;;;;;;3.15;0.70;;;10.40;95.50;;;;;;5052889;28;20408;-63
2023/05/17 07:17:38;;;;;;;1.67;0.60;;;10.40;95.40;;;;;;5054015;28;20047;-63
2023/05/17 07:20:04;;;;;;;2.42;0.60;;;10.30;94.20;;;;;;5052729;28;20033;-63
2023/05/17 07:22:30;;;;;;;2.83;0.82;;;10.30;94.50;;;;;;5053719;28;20125;-62
2023/05/17 07:24:56;;;;;;;5.38;0.80;;;10.30;94.90;;;;;;5053890;28;20500;-62
2023/05/17 07:27:22;;;;;;;1.65;0.60;;;10.30;96.40;;;;;;5053486;28;20047;-62
2023/05/17 07:29:47;;;;;;;2.35;0.60;;;10.30;96.70;;;;;;5053429;28;20481;-62
2023/05/17 07:32:14;;;;;;;6.68;1.10;;;10.30;98.30;;;;;;5053545;28;20040;-63
2023/05/17 07:34:40;;;;;;;4.45;0.95;;;10.30;98.00;;;;;;5053270;28;20052;-62
2023/05/17 07:37:06;;;;;;;5.85;1.00;;;10.30;98.40;;;;;;5053428;28;20033;-62
2023/05/17 07:39:31;;;;;;;4.32;0.52;;;10.40;99.50;;;;;;5053137;28;20492;-62
2023/05/17 07:41:57;;;;;;;2.08;0.70;;;10.50;99.30;;;;;;5053388;28;20041;-62
2023/05/17 07:44:23;;;;;;;1.45;0.57;;;10.60;98.00;;;;;;5053308;28;20052;-62
2023/05/17 07:46:48;;;;;;;1.67;0.63;;;10.60;98.50;;;;;;5053339;28;20036;-62
2023/05/17 07:49:14;;;;;;;1.83;0.70;;;10.60;96.80;;;;;;5053292;28;20119;-62
2023/05/17 07:51:39;;;;;;;4.75;0.85;;;10.60;95.30;;;;;;5053112;28;20178;-63
2023/05/17 07:54:05;;;;;;;2.35;0.70;;;10.70;96.40;;;;;;5053237;28;20049;-63
2023/05/17 07:56:32;;;;;;;3.13;0.88;;;10.70;95.20;;;;;;5051053;28;20374;-63
2023/05/17 07:58:58;;;;;;;1.63;0.65;;;11.60;93.50;;;;;;5053089;28;20045;-63
2023/05/17 08:01:24;;;;;;;3.38;0.70;;;10.80;94.30;;;;;;5053069;28;20108;-63
2023/05/17 08:03:50;;;;;;;0.93;0.70;;;10.90;93.40;;;;;;5052472;28;20048;-63
2023/05/17 08:06:16;;;;;;;2.38;0.73;;;11.00;93.80;;;;;;5052656;28;20106;-63
2023/05/17 08:08:42;;;;;;;2.63;0.73;;;11.10;93.20;;;;;;5052937;28;20041;-63
2023/05/17 08:11:09;;;;;;;5.78;0.77;;;11.20;92.40;;;;;;5053102;28;20116;-62
2023/05/17 08:13:35;;;;;;;1.42;0.55;;;11.20;90.70;;;;;;5051479;28;20049;-63
2023/05/17 08:16:02;;;;;;;1.50;0.68;;;11.20;90.50;;;;;;5053027;28;20041;-63
2023/05/17 08:18:30;;;;;;;5.05;0.73;;;11.30;91.30;;;;;;5052751;28;20060;-63
2023/05/17 08:20:56;;;;;;;2.35;0.60;;;11.20;89.40;;;;;;5052806;28;20451;-63
2023/05/17 08:23:22;;;;;;;2.03;0.70;;;11.50;99.90;;;;;;5052793;28;20083;-63
2023/05/17 08:25:47;;;;;;;2.22;0.63;;;11.70;99.90;;;;;;5052849;28;20049;-63
2023/05/17 08:28:13;;;;;;;2.40;0.63;;;11.40;99.90;;;;;;5052915;28;20459;-63
2023/05/17 08:30:38;;;;;;;1.88;0.57;;;11.30;99.90;;;;;;5052835;28;20069;-63
2023/05/17 08:33:04;;;;;;;2.58;0.77;;;11.60;99.90;;;;;;5052350;28;20504;-63
2023/05/17 08:35:30;;;;;;;2.72;0.70;;;11.30;99.90;;;;;;5052779;28;20079;-63
2023/05/17 08:37:56;;;;;;;2.47;0.70;;;11.30;99.90;;;;;;5051203;28;20037;-63
2023/05/17 08:40:22;;;;;;;2.95;0.50;;;11.30;99.90;;;;;;5052495;28;20102;-64
2023/05/17 08:42:52;;;;;;;2.72;0.93;;;11.40;99.90;;;;;;5052663;28;20033;-63
2023/05/17 08:45:17;;;;;;;1.98;0.73;;;11.30;98.70;;;;;;5051123;28;20044;-63
2023/05/17 08:47:45;;;;;;;4.45;1.13;;;11.40;99.90;;;;;;5052589;28;20037;-63
2023/05/17 08:50:11;;;;;;;4.43;0.88;;;11.40;99.90;;;;;;5052376;28;20040;-63
2023/05/17 08:52:39;;;;;;;2.00;0.93;;;11.70;99.90;;;;;;5052222;28;20048;-63
2023/05/17 08:55:07;;;;;;;3.28;1.08;;;11.60;99.90;;;;;;5052593;28;20075;-63
2023/05/17 08:57:36;;;;;;;3.10;0.63;;;11.60;99.90;;;;;;5052666;28;20465;-62
2023/05/17 09:00:11;;;;;;;2.85;0.88;;;11.50;99.90;;;;;;5052576;28;20033;-62
2023/05/17 09:02:38;;;;;;;4.63;0.85;;;11.50;99.90;;;;;;5052542;28;20087;-63
2023/05/17 09:05:05;;;;;;;2.85;0.80;;;11.60;99.90;;;;;;5050857;28;20083;-63
2023/05/17 09:07:31;;;;;;;2.25;0.65;;;11.50;99.90;;;;;;5051288;28;20036;-62
2023/05/17 09:09:57;;;;;;;8.20;0.63;;;11.90;99.90;;;;;;5056343;28;20033;-63
2023/05/17 09:12:23;;;;;;;2.03;0.95;;;11.60;99.90;;;;;;5056082;28;20044;-63
2023/05/17 09:14:49;;;;;;;5.63;0.75;;;11.90;99.90;;;;;;5055878;28;20045;-63
2023/05/17 09:17:20;;;;;;;4.95;0.88;;;12.20;1.00;;;;;;5055833;28;20037;-63
2023/05/17 09:19:47;;;;;;;4.00;0.88;;;;;;;;;;5054615;28;20044;-64
2023/05/17 09:22:14;;;;;;;5.57;0.70;;;12.00;61.80;;;;;;5054648;28;20048;-64
2023/05/17 09:24:41;;;;;;;2.88;0.50;;;12.00;74.60;;;;;;5055631;28;20045;-63
2023/05/17 09:27:07;;;;;;;1.33;0.60;;;12.10;73.10;;;;;;5054551;28;20485;-63
2023/05/17 09:29:34;;;;;;;1.73;0.43;;;12.10;66.80;;;;;;5055975;28;20048;-63
2023/05/17 09:32:17;;;;;;;3.00;0.68;;;12.30;67.40;;;;;;5055696;28;20469;-63
2023/05/17 09:34:45;;;;;;;4.07;0.90;;;12.50;70.60;;;;;;5055782;28;20033;-63
2023/05/17 09:37:18;;;;;;;3.03;0.70;;;12.70;69.00;;;;;;5055748;28;20040;-62
2023/05/17 09:39:46;;;;;;;4.07;0.63;;;12.70;64.70;;;;;;5055760;28;20048;-62
2023/05/17 09:42:12;;;;;;;0.40;0.40;;;12.60;61.50;;;;;;5055788;28;20131;-62
2023/05/17 09:44:58;;;;;;;1.80;0.70;;;12.70;61.30;;;;;;5055625;28;20124;-62
2023/05/17 09:47:27;;;;;;;2.67;0.47;;;12.70;61.10;;;;;;5055674;28;20064;-62
2023/05/17 09:49:54;;;;;;;0.65;0.50;;;12.70;59.40;;;;;;5055582;28;20488;-62
2023/05/17 09:52:20;;;;;;;1.13;0.50;;;12.60;56.90;;;;;;5055313;28;20485;-62
2023/05/17 09:54:53;;;;;;;1.35;0.60;;;12.70;51.00;;;;;;5055404;28;20128;-62
2023/05/17 09:57:19;;;;;;;1.10;0.57;;;12.80;50.70;;;;;;5053908;28;20040;-63
2023/05/17 09:59:46;;;;;;;2.13;0.52;;;12.80;52.70;;;;;;5055088;28;20075;-63
2023/05/17 10:02:19;;;;;;;1.02;0.65;;;12.90;54.10;;;;;;5055216;28;20043;-63
2023/05/17 10:04:48;;;;;;;2.63;0.70;;;12.80;54.30;;;;;;5054958;28;20057;-63
2023/05/17 10:07:18;;;;;;;0.80;0.30;;;12.80;50.30;;;;;;5055011;28;20052;-63
2023/05/17 10:09:46;;;;;;;2.50;0.80;;;13.10;56.20;;;;;;5055082;28;20076;-63
2023/05/17 10:12:16;;;;;;;2.75;1.00;;;13.10;55.70;;;;;;5053640;28;20420;-63
2023/05/17 10:14:43;;;;;;;1.92;0.60;;;13.00;53.00;;;;;;5055004;28;20049;-63
2023/05/17 10:17:10;;;;;;;1.38;0.75;;;13.00;53.60;;;;;;5054901;28;20445;-63
2023/05/17 10:19:36;;;;;;;1.45;0.68;;;12.80;53.30;;;;;;5054131;28;20048;-67
2023/05/17 10:22:02;;;;;;;0.75;0.45;;;12.80;54.80;;;;;;5054751;28;20043;-63
2023/05/17 10:24:30;;;;;;;2.50;0.57;;;12.80;55.70;;;;;;5054967;28;20432;-66
2023/05/17 10:26:56;;;;;;;2.70;0.50;;;12.80;54.50;;;;;;5054858;28;20412;-63
2023/05/17 10:29:23;;;;;;;2.58;0.70;;;15.60;60.90;;;;;;5054536;28;20056;-64
2023/05/17 10:31:52;;;;;;;5.18;0.70;;;12.70;54.00;;;;;;5054403;28;20511;-65
2023/05/17 10:34:19;;;;;;;1.48;0.47;;;12.80;55.70;;;;;;5053677;28;20402;-62
2023/05/17 10:36:47;;;;;;;1.05;0.40;;;12.80;52.40;;;;;;5036635;28;20115;-62
2023/05/17 10:39:13;;;;;;;1.65;0.52;;;12.70;49.00;;;;;;5054713;28;20495;-63
2023/05/17 10:41:45;;;;;;;3.42;0.60;;;12.90;51.80;;;;;;5054693;28;20107;-63
2023/05/17 10:44:13;;;;;;;5.32;0.75;;;12.90;53.60;;;;;;5053388;28;20499;-63
2023/05/17 10:46:39;;;;;;;1.85;0.50;;;13.00;53.60;;;;;;5054158;28;20044;-62
2023/05/17 10:49:05;;;;;;;0.93;0.55;;;13.00;52.40;;;;;;5054283;28;20041;-62
2023/05/17 10:51:33;;;;;;;5.18;1.00;;;13.10;52.40;;;;;;5053037;28;20039;-62
2023/05/17 10:54:02;;;;;;;7.63;0.98;;;13.10;51.60;;;;;;5052997;28;20055;-63
2023/05/17 10:56:30;;;;;;;1.02;0.30;;;13.00;50.50;;;;;;5054314;28;20029;-65
2023/05/17 10:59:28;;;;;;;1.85;0.50;;;13.00;50.00;;;;;;5054134;28;20090;-62
2023/05/17 11:01:57;;;;;;;2.22;0.50;;;12.80;43.80;;;;;;5020537;28;20124;-63
2023/05/17 11:04:37;;;;;;;2.65;0.63;;;12.90;48.00;;;;;;5053743;28;20044;-62
2023/05/17 11:07:22;;;;;;;1.13;0.43;;;13.20;51.60;;;;;;5053897;28;20045;-62
2023/05/17 11:10:06;;;;;;;4.38;0.63;;;13.30;48.80;;;;;;5053703;28;20119;-62
2023/05/17 11:12:41;;;;;;;1.33;0.45;;;13.20;45.80;;;;;;5053940;28;20566;-63
2023/05/17 11:15:10;;;;;;;2.22;0.60;;;13.20;46.60;;;;;;5053900;28;20048;-63
2023/05/17 11:17:42;;;;;;;5.05;0.88;;;13.20;46.60;;;;;;5053875;28;20063;-62
2023/05/17 11:20:28;;;;;;;1.88;0.60;;;13.20;45.30;;;;;;5053778;28;20041;-63
2023/05/17 11:23:03;;;;;;;0.50;0.32;;;13.20;44.60;;;;;;5052216;28;20048;-62
2023/05/17 11:25:34;;;;;;;1.27;0.57;;;13.30;47.70;;;;;;5053744;28;20044;-63
2023/05/17 11:28:16;;;;;;;2.70;0.85;;;13.40;47.20;;;;;;5053564;28;20033;-63
2023/05/17 11:30:42;;;;;;;1.95;0.70;;;13.50;48.50;;;;;;5053507;28;20044;-62
2023/05/17 11:33:08;;;;;;;2.25;0.47;;;13.50;47.80;;;;;;5052585;28;20049;-62
2023/05/17 11:35:36;;;;;;;4.28;0.70;;;13.40;43.40;;;;;;5053631;28;20500;-62
2023/05/17 11:38:15;;;;;;;1.80;0.43;;;13.30;42.40;;;;;;5053666;28;20435;-63
2023/05/17 11:40:42;;;;;;;1.80;0.65;;;13.60;46.30;;;;;;5053310;28;20044;-63
2023/05/17 11:43:13;;;;;;;6.25;0.77;;;13.70;46.20;;;;;;5053588;28;20044;-62
2023/05/17 11:45:47;;;;;;;4.95;1.13;;;13.60;44.70;;;;;;5053480;28;20087;-63
2023/05/17 11:48:14;;;;;;;1.33;0.77;;;13.60;44.00;;;;;;5052358;28;20045;-62
2023/05/17 11:50:44;;;;;;;2.33;0.70;;;13.50;44.10;;;;;;5053313;28;20037;-62
2023/05/17 11:53:10;;;;;;;4.50;0.80;;;13.60;43.40;;;;;;5053313;28;20041;-65
2023/05/17 11:55:40;;;;;;;8.63;0.70;;;14.10;43.20;;;;;;5053305;28;20272;-63
2023/05/17 11:58:08;;;;;;;1.42;0.50;;;13.50;42.10;;;;;;5053315;28;20119;-63
2023/05/17 12:00:34;;;;;;;1.15;0.50;;;13.70;40.40;;;;;;5052033;28;20041;-63
2023/05/17 12:03:24;;;;;;;4.93;1.00;;;13.70;44.50;;;;;;5053230;28;20496;-63
2023/05/17 12:06:00;;;;;;;1.75;0.70;;;13.80;43.20;;;;;;5052770;28;20425;-63
2023/05/17 12:08:26;;;;;;;3.13;0.75;;;13.80;57.90;;;;;;5053151;28;20548;-63
2023/05/17 12:10:52;;;;;;;4.32;0.80;;;13.70;44.10;;;;;;5053034;28;20072;-63
2023/05/17 12:13:19;;;;;;;3.05;1.30;;;13.70;42.10;;;;;;5051501;28;20485;-63
2023/05/17 12:15:54;;;;;;;2.25;0.80;;;13.50;39.90;;;;;;5052846;28;20074;-63
2023/05/17 12:18:20;;;;;;;1.00;0.65;;;13.50;40.00;;;;;;5052995;28;20545;-63
2023/05/17 12:21:01;;;;;;;1.55;0.88;;;13.40;37.10;;;;;;5052905;28;20119;-63
2023/05/17 12:23:27;;;;;;;;;;;13.50;39.50;;;;;;5053322;28;20037;-63
2023/05/17 12:26:10;;;;;;;3.15;0.98;;;13.60;38.20;;;;;;5051657;28;20376;-64
2023/05/17 12:28:44;;;;;;;3.00;0.77;;;13.60;38.30;;;;;;5052544;28;20124;-63
2023/05/17 12:31:24;;;;;;;2.30;0.68;;;13.50;39.20;;;;;;5052611;28;20029;-63
2023/05/17 12:33:51;;;;;;;1.65;0.88;;;13.40;35.70;;;;;;5051242;28;20053;-63
2023/05/17 12:36:17;;;;;;;2.20;0.73;;;13.50;37.60;;;;;;5052629;28;20543;-63
2023/05/17 12:38:44;;;;;;;1.95;0.85;;;13.90;39.50;;;;;;5052855;28;20542;-63
2023/05/17 12:41:11;;;;;;;1.48;0.70;;;13.40;38.00;;;;;;5051324;28;20071;-63
2023/05/17 12:43:38;;;;;;;8.55;0.73;;;13.50;37.80;;;;;;5054629;28;20040;-62
2023/05/17 12:46:06;;;;;;;2.00;0.68;;;13.50;36.90;;;;;;5056776;28;20481;-63
2023/05/17 12:48:37;;;;;;;2.60;0.65;;;13.50;43.80;;;;;;5055440;28;20346;-63
2023/05/17 12:51:13;;;;;;;1.10;0.43;;;13.50;36.90;;;;;;5055163;28;20048;-63
2023/05/17 12:53:53;;;;;;;1.40;0.75;;;13.50;35.20;;;;;;5056635;28;20037;-63
2023/05/17 12:56:24;;;;;;;2.07;0.60;;;13.60;35.20;;;;;;5056695;28;20428;-63